Time;durP1;ratioP1;P1;durP2;ratioP2;P2;SDS_P1;SDS_P2;PMS_P1;PMS_P2;Temp;Humidity;BMP_temperature;BMP_pressure;BME280_temperature;BME280_humidity;BME280_pressure;Samples;Min_cycle;Max_cycle;Signal;HPM_P1;HPM_P2
2023/04/21 00:00:09;;;;;;;6.05;2.20;;;;;;;8.83;72.13;99942.42;1672581;86;21528;-59
2023/04/21 00:02:40;;;;;;;10.65;2.27;;;;;;;8.85;71.99;99938.45;1672463;85;21131;-58
2023/04/21 00:05:09;;;;;;;9.30;2.55;;;;;;;8.86;71.79;99940.66;1672521;85;21071;-57
2023/04/21 00:07:39;;;;;;;10.13;2.12;;;;;;;8.86;71.71;99942.02;1672575;85;21036;-58
2023/04/21 00:10:08;;;;;;;10.43;2.47;;;;;;;8.86;71.75;99942.02;1672593;85;21075;-57
2023/04/21 00:12:38;;;;;;;14.98;2.42;;;;;;;8.86;71.82;99940.13;1672692;85;21491;-58
2023/04/21 00:15:08;;;;;;;11.80;2.15;;;;;;;8.87;71.53;99940.45;1672814;85;21052;-57
2023/04/21 00:17:39;;;;;;;9.55;2.50;;;;;;;8.87;71.51;99941.83;1673745;86;21056;-56
2023/04/21 00:20:09;;;;;;;9.53;2.10;;;;;;;8.86;71.55;99941.50;1673432;86;21192;-58
2023/04/21 00:22:38;;;;;;;10.65;2.33;;;;;;;8.86;71.62;99942.02;1674430;86;21008;-55
2023/04/21 00:25:08;;;;;;;14.95;2.52;;;;;;;8.84;71.68;99939.48;1674303;85;21076;-57
2023/04/21 00:27:36;;;;;;;12.43;2.45;;;;;;;8.82;71.68;99935.27;1672914;85;21051;-58
2023/04/21 00:30:07;;;;;;;13.62;3.02;;;;;;;8.79;71.76;99935.66;1672586;86;21072;-57
2023/04/21 00:32:38;;;;;;;11.70;1.87;;;;;;;8.78;71.93;99942.17;1672577;85;21007;-57
2023/04/21 00:35:08;;;;;;;11.30;2.02;;;;;;;8.79;72.24;99938.39;1672861;86;21047;-56
2023/04/21 00:37:39;;;;;;;11.20;2.20;;;;;;;8.77;72.16;99933.13;1672644;85;21036;-56
2023/04/21 00:40:09;;;;;;;14.07;3.12;;;;;;;8.74;72.08;99930.79;1672438;85;21060;-56
2023/04/21 00:42:40;;;;;;;8.45;2.17;;;;;;;8.74;72.07;99929.95;1671228;85;21010;-55
2023/04/21 00:45:10;;;;;;;11.30;2.20;;;;;;;8.73;72.10;99933.20;1671237;86;21036;-56
2023/04/21 00:47:39;;;;;;;14.18;2.65;;;;;;;8.73;72.18;99923.64;1672127;86;21171;-57
2023/04/21 00:50:09;;;;;;;11.75;2.22;;;;;;;8.73;72.18;99935.93;1672599;85;21040;-57
2023/04/21 00:52:42;;;;;;;11.75;2.33;;;;;;;8.72;72.16;99930.14;1672491;86;21080;-56
2023/04/21 00:55:11;;;;;;;11.22;2.10;;;;;;;8.73;72.05;99926.89;1672508;86;21035;-55
2023/04/21 00:57:41;;;;;;;13.38;2.40;;;;;;;8.72;71.85;99929.30;1680931;83;21502;-56
2023/04/21 01:00:11;;;;;;;10.70;2.30;;;;;;;8.71;71.96;99924.87;1692235;85;21035;-55
2023/04/21 01:02:41;;;;;;;8.45;1.55;;;;;;;8.71;72.00;99931.70;1692213;84;21137;-56
2023/04/21 01:05:11;;;;;;;11.75;2.30;;;;;;;8.70;72.18;99924.55;1692052;84;21019;-57
2023/04/21 01:07:41;;;;;;;9.65;2.33;;;;;;;8.70;72.13;99926.77;1692163;84;21462;-55
2023/04/21 01:10:10;;;;;;;13.28;2.33;;;;;;;8.71;72.29;99933.07;1692159;85;21007;-56
2023/04/21 01:12:46;;;;;;;10.93;1.87;;;;;;;8.67;72.34;99930.41;1691937;85;21062;-55
2023/04/21 01:15:16;;;;;;;9.90;2.30;;;;;;;8.64;72.32;99930.28;1692156;85;21059;-57
2023/04/21 01:17:45;;;;;;;13.62;2.15;;;;;;;8.64;72.38;99926.19;1692196;85;21083;-56
2023/04/21 01:20:14;;;;;;;10.28;2.30;;;;;;;8.62;72.40;99932.37;1691898;85;21074;-56
2023/04/21 01:22:44;;;;;;;10.63;2.55;;;;;;;8.61;72.55;99927.10;1670698;85;21047;-56
2023/04/21 01:25:13;;;;;;;10.20;2.30;;;;;;;8.58;72.63;99925.61;1691960;85;21095;-57
2023/04/21 01:27:41;;;;;;;9.18;2.65;;;;;;;8.54;72.64;99918.33;1692179;85;21086;-57
2023/04/21 01:30:10;;;;;;;11.25;2.27;;;;;;;8.54;72.83;99919.70;1691771;84;21528;-56
2023/04/21 01:32:39;;;;;;;12.58;2.22;;;;;;;8.54;72.90;99914.76;1692277;85;21003;-55
2023/04/21 01:35:09;;;;;;;8.23;2.00;;;;;;;8.56;72.93;99922.23;1692301;85;21035;-57
2023/04/21 01:37:39;;;;;;;11.48;2.77;;;;;;;8.54;73.00;99912.88;1692089;85;21074;-56
2023/04/21 01:40:10;;;;;;;10.72;2.60;;;;;;;8.47;73.16;99913.33;1691976;85;21066;-56
2023/04/21 01:42:42;;;;;;;10.48;2.10;;;;;;;8.47;73.40;99913.85;1691860;84;21015;-56
2023/04/21 01:45:11;;;;;;;14.90;2.20;;;;;;;8.45;73.49;99907.71;1691995;85;21050;-56
2023/04/21 01:47:40;;;;;;;8.58;2.17;;;;;;;8.44;73.59;99908.75;1691954;84;21047;-58
2023/04/21 01:50:09;;;;;;;11.33;2.20;;;;;;;8.42;73.68;99913.05;1692218;85;21054;-57
2023/04/21 01:52:38;;;;;;;10.58;2.45;;;;;;;8.42;73.89;99906.73;1692299;84;21483;-55
2023/04/21 01:55:08;;;;;;;11.10;2.42;;;;;;;8.41;73.98;99909.98;1691801;85;21630;-57
2023/04/21 01:57:38;;;;;;;11.18;2.37;;;;;;;8.42;73.99;99909.47;1692247;84;21051;-58
2023/04/21 02:00:08;;;;;;;9.78;2.30;;;;;;;8.43;73.97;99908.42;1663582;85;21117;-57
2023/04/21 02:02:44;;;;;;;14.65;2.58;;;;;;;8.45;73.90;99899.03;1647641;86;21112;-57
2023/04/21 02:05:14;;;;;;;9.95;2.55;;;;;;;8.44;73.86;99898.67;1654706;86;21502;-55
2023/04/21 02:07:45;;;;;;;9.68;2.40;;;;;;;8.44;73.87;99898.67;1652891;86;21016;-57
2023/04/21 02:10:14;;;;;;;10.50;3.77;;;;;;;8.46;73.85;99894.42;1689009;85;21075;-56
2023/04/21 02:12:45;;;;;;;11.73;2.60;;;;;;;8.46;73.85;99894.42;1653793;85;21112;-57
2023/04/21 02:15:13;;;;;;;11.15;2.47;;;;;;;8.46;73.95;99889.80;1686282;85;21098;-57
2023/04/21 02:17:43;;;;;;;15.28;2.77;;;;;;;8.47;73.96;99893.38;1674133;85;21471;-55
2023/04/21 02:20:12;;;;;;;9.93;2.55;;;;;;;8.45;73.96;99884.02;1674643;85;21627;-56
2023/04/21 02:22:41;;;;;;;10.65;2.67;;;;;;;8.46;73.95;99873.42;1669914;85;21039;-57
2023/04/21 02:25:11;;;;;;;15.68;2.37;;;;;;;8.46;73.90;99880.77;1678584;85;21064;-56
2023/04/21 02:27:41;;;;;;;10.95;2.40;;;;;;;8.46;73.81;99880.25;1672977;85;21067;-56
2023/04/21 02:30:10;;;;;;;15.03;2.20;;;;;;;8.45;73.79;99879.05;1671285;85;21067;-56
2023/04/21 02:32:40;;;;;;;12.47;2.35;;;;;;;8.43;73.72;99877.03;1678734;85;21107;-56
2023/04/21 02:35:09;;;;;;;12.05;2.35;;;;;;;8.42;73.75;99869.88;1676790;85;21031;-56
2023/04/21 02:37:38;;;;;;;11.63;2.55;;;;;;;8.42;73.67;99874.83;1674434;85;21476;-56
2023/04/21 02:40:09;;;;;;;18.17;2.75;;;;;;;8.42;73.73;99875.34;1674178;85;21099;-56
2023/04/21 02:42:38;;;;;;;10.75;2.55;;;;;;;8.42;73.74;99873.98;1674224;85;21396;-56
2023/04/21 02:45:08;;;;;;;15.08;2.30;;;;;;;8.42;73.67;99874.83;1674275;85;21075;-57
2023/04/21 02:47:38;;;;;;;14.73;2.50;;;;;;;8.43;73.69;99878.40;1674119;85;21048;-58
2023/04/21 02:50:12;;;;;;;10.88;2.10;;;;;;;8.39;73.70;99871.13;1673831;85;21075;-56
2023/04/21 02:52:41;;;;;;;9.33;2.20;;;;;;;8.39;73.80;99872.48;1675141;85;21055;-56
2023/04/21 02:55:10;;;;;;;14.83;2.37;;;;;;;8.40;73.94;99869.23;1650029;87;21083;-60
2023/04/21 02:57:39;;;;;;;12.03;2.40;;;;;;;8.40;74.00;99870.08;1624188;88;21071;-58
2023/04/21 03:00:11;;;;;;;14.43;2.10;;;;;;;8.39;73.98;99868.91;1683565;84;21191;-57
2023/04/21 03:02:40;;;;;;;10.88;2.05;;;;;;;8.37;74.14;99866.90;1692083;84;21047;-57
2023/04/21 03:05:10;;;;;;;12.33;2.47;;;;;;;8.37;74.25;99865.53;1692044;85;21511;-57
2023/04/21 03:07:39;;;;;;;12.80;2.52;;;;;;;8.36;74.27;99868.78;1691931;85;21047;-56
2023/04/21 03:10:08;;;;;;;17.73;2.83;;;;;;;8.38;74.41;99868.06;1692022;85;21094;-57
2023/04/21 03:12:37;;;;;;;15.75;2.40;;;;;;;8.38;74.30;99868.06;1692230;85;21544;-57
2023/04/21 03:15:07;;;;;;;10.25;2.50;;;;;;;8.38;74.26;99865.34;1692263;84;21062;-57
2023/04/21 03:17:36;;;;;;;5.37;1.90;;;;;;;8.36;74.21;99870.67;1670587;85;21074;-56
2023/04/21 03:20:07;;;;;;;12.68;2.58;;;;;;;8.37;74.24;99868.27;1691917;85;21121;-57
2023/04/21 03:22:38;;;;;;;10.30;2.65;;;;;;;8.39;74.24;99873.01;1676500;85;21003;-56
2023/04/21 03:25:07;;;;;;;13.85;2.62;;;;;;;8.40;74.19;99871.45;1692006;85;21043;-57
2023/04/21 03:27:36;;;;;;;11.12;2.33;;;;;;;8.41;74.10;99877.23;1691897;85;21078;-57
2023/04/21 03:30:07;;;;;;;16.52;2.92;;;;;;;8.42;74.11;99876.70;1692090;84;21106;-58
2023/04/21 03:32:38;;;;;;;12.95;2.95;;;;;;;8.42;74.13;99869.36;1691888;84;21034;-56
2023/04/21 03:35:07;;;;;;;11.63;2.70;;;;;;;8.42;74.05;99869.36;1691748;84;21106;-57
2023/04/21 03:37:36;;;;;;;14.05;2.65;;;;;;;8.43;74.08;99874.30;1691957;84;21031;-56
2023/04/21 03:40:07;;;;;;;9.63;2.42;;;;;;;8.43;73.93;99872.42;1692074;84;21071;-57
2023/04/21 03:42:36;;;;;;;10.58;2.60;;;;;;;8.43;73.87;99872.42;1691890;85;21543;-56
2023/04/21 03:45:06;;;;;;;12.65;3.37;;;;;;;8.44;73.75;99870.02;1691974;84;21106;-55
2023/04/21 03:47:36;;;;;;;13.38;2.55;;;;;;;8.45;73.79;99864.91;1692431;84;21059;-56
2023/04/21 03:50:06;;;;;;;10.55;2.65;;;;;;;8.47;73.74;99862.83;1692370;84;21079;-56
2023/04/21 03:52:35;;;;;;;15.50;2.62;;;;;;;8.49;73.71;99863.47;1692674;85;21070;-56
2023/04/21 03:55:10;;;;;;;17.30;2.80;;;;;;;8.53;73.79;99862.55;1693310;84;21544;-56
2023/04/21 03:57:39;;;;;;;11.93;3.00;;;;;;;8.51;73.76;99858.66;1693622;85;21007;-57
2023/04/21 04:00:09;;;;;;;12.80;2.40;;;;;;;8.53;73.74;99859.83;1693835;85;21584;-59
2023/04/21 04:02:42;;;;;;;11.35;2.33;;;;;;;8.56;73.67;99860.80;1693023;84;21052;-57
2023/04/21 04:05:11;;;;;;;13.85;2.50;;;;;;;8.56;73.72;99853.97;1691975;85;21055;-56
2023/04/21 04:07:41;;;;;;;17.50;2.55;;;;;;;8.58;73.59;99852.72;1692079;85;21474;-56
2023/04/21 04:10:10;;;;;;;19.00;2.92;;;;;;;8.62;73.59;99855.06;1692183;84;21030;-58
2023/04/21 04:12:39;;;;;;;13.18;2.98;;;;;;;8.65;73.45;99851.93;1692070;85;21042;-57
2023/04/21 04:15:08;;;;;;;17.07;2.90;;;;;;;8.67;73.32;99849.33;1691902;84;21138;-57
2023/04/21 04:17:37;;;;;;;13.65;3.75;;;;;;;8.71;73.24;99855.23;1692250;85;21031;-56
2023/04/21 04:20:08;;;;;;;13.20;3.22;;;;;;;8.72;73.09;99852.30;1691999;84;21544;-57
2023/04/21 04:22:37;;;;;;;10.88;2.62;;;;;;;8.76;72.91;99859.58;1691956;84;21039;-56
2023/04/21 04:25:08;;;;;;;14.93;2.75;;;;;;;8.79;72.59;99860.55;1692386;84;21030;-59
2023/04/21 04:27:37;;;;;;;16.07;2.42;;;;;;;8.82;72.59;99859.62;1692137;85;21062;-55
2023/04/21 04:30:09;;;;;;;8.85;2.60;;;;;;;8.87;72.48;99865.85;1691997;84;21536;-56
2023/04/21 04:32:41;;;;;;;14.50;2.90;;;;;;;8.91;72.38;99861.67;1692048;85;21043;-61
2023/04/21 04:35:11;;;;;;;13.65;2.45;;;;;;;8.97;72.28;99866.34;1692025;84;21046;-58
2023/04/21 04:37:41;;;;;;;12.20;3.12;;;;;;;9.01;72.07;99863.52;1692143;84;21010;-56
2023/04/21 04:40:11;;;;;;;12.58;3.10;;;;;;;9.07;71.97;99869.55;1691961;84;21071;-57
2023/04/21 04:42:42;;;;;;;13.48;3.08;;;;;;;9.12;71.77;99871.72;1692241;84;21062;-57
2023/04/21 04:45:12;;;;;;;17.60;7.70;;;;;;;9.18;71.51;99873.13;1692101;84;21043;-57
2023/04/21 04:47:42;;;;;;;21.62;4.58;;;;;;;9.23;71.13;99871.15;1692032;84;21059;-57
2023/04/21 04:50:11;;;;;;;20.48;3.60;;;;;;;9.27;71.10;99878.42;1692137;85;21063;-57
2023/04/21 04:52:40;;;;;;;11.78;3.47;;;;;;;9.33;71.13;99874.88;1692227;84;21078;-57
2023/04/21 04:55:10;;;;;;;13.90;3.50;;;;;;;9.42;70.98;99880.50;1672677;85;21111;-59
2023/04/21 04:57:40;;;;;;;17.52;3.60;;;;;;;9.51;70.71;99873.80;1672249;85;21129;-58
2023/04/21 05:00:10;;;;;;;12.68;3.05;;;;;;;9.61;70.56;99874.27;1671917;86;21092;-57
2023/04/21 05:02:39;;;;;;;12.90;3.30;;;;;;;9.70;70.22;99871.67;1670426;86;21096;-57
2023/04/21 05:05:08;;;;;;;12.70;2.80;;;;;;;9.80;70.03;99874.89;1670456;86;21452;-57
2023/04/21 05:07:38;;;;;;;16.42;3.40;;;;;;;9.85;69.92;99878.37;1670405;85;21558;-58
2023/04/21 05:10:08;;;;;;;16.00;3.60;;;;;;;9.90;69.58;99876.39;1670368;86;21000;-55
2023/04/21 05:12:37;;;;;;;12.95;3.80;;;;;;;9.94;69.30;99872.20;1670543;86;21095;-55
2023/04/21 05:15:07;;;;;;;12.63;3.50;;;;;;;9.96;69.08;99880.52;1670601;86;21078;-57
2023/04/21 05:17:36;;;;;;;13.25;3.00;;;;;;;10.00;69.02;99883.16;1670481;85;21112;-56
2023/04/21 05:20:07;;;;;;;20.00;3.45;;;;;;;10.02;68.87;99880.22;1670305;86;21031;-57
2023/04/21 05:22:37;;;;;;;13.50;2.70;;;;;;;10.04;68.71;99878.11;1670480;85;21551;-57
2023/04/21 05:25:09;;;;;;;13.88;3.10;;;;;;;10.05;68.69;99879.27;1670592;86;21013;-57
2023/04/21 05:27:38;;;;;;;11.65;2.60;;;;;;;10.09;68.56;99884.66;1638185;86;21060;-56
2023/04/21 05:30:08;;;;;;;13.43;2.90;;;;;;;10.13;68.11;99880.98;1670675;86;21044;-59
2023/04/21 05:32:37;;;;;;;11.35;2.62;;;;;;;10.17;67.77;99871.30;1670870;85;21107;-56
2023/04/21 05:35:07;;;;;;;18.48;3.72;;;;;;;10.21;67.82;99875.34;1670573;85;21080;-57
2023/04/21 05:37:38;;;;;;;14.07;3.42;;;;;;;10.26;67.65;99875.55;1670562;86;21468;-58
2023/04/21 05:40:08;;;;;;;15.35;3.30;;;;;;;10.31;67.59;99877.66;1670527;86;21467;-57
2023/04/21 05:42:37;;;;;;;13.38;2.40;;;;;;;10.33;67.36;99883.25;1670487;86;21076;-58
2023/04/21 05:45:09;;;;;;;20.62;3.92;;;;;;;10.37;67.33;99879.05;1670296;85;21533;-58
2023/04/21 05:47:39;;;;;;;13.28;2.70;;;;;;;10.41;66.64;99882.23;1670508;86;21468;-56
2023/04/21 05:50:09;;;;;;;11.97;2.70;;;;;;;10.45;66.52;99874.77;1670164;86;21076;-57
2023/04/21 05:52:38;;;;;;;12.37;2.45;;;;;;;10.50;66.06;99876.87;1670387;86;21040;-57
2023/04/21 05:55:07;;;;;;;11.65;2.65;;;;;;;10.52;65.91;99873.39;1670430;86;21032;-57
2023/04/21 05:57:36;;;;;;;13.35;2.87;;;;;;;10.53;65.87;99872.34;1670704;86;21064;-57
2023/04/21 06:00:08;;;;;;;17.05;3.05;;;;;;;10.56;65.85;99870.55;1670254;86;21483;-58
2023/04/21 06:02:37;;;;;;;16.17;3.30;;;;;;;10.55;65.77;99870.77;1670639;86;21075;-57
2023/04/21 06:05:07;;;;;;;15.85;2.83;;;;;;;10.55;65.79;99861.17;1670511;85;21537;-56
2023/04/21 06:07:37;;;;;;;15.93;2.98;;;;;;;10.58;65.80;99869.81;1670551;86;21084;-58
2023/04/21 06:10:08;;;;;;;10.43;2.52;;;;;;;10.63;65.58;99865.91;1670692;85;21040;-56
2023/04/21 06:12:37;;;;;;;8.58;2.60;;;;;;;10.63;65.09;99871.92;1670416;86;21443;-57
2023/04/21 06:15:07;;;;;;;16.73;3.12;;;;;;;10.64;64.93;99862.64;1670418;86;21452;-58
2023/04/21 06:17:36;;;;;;;14.03;2.92;;;;;;;10.64;64.84;99864.86;1670376;86;21068;-57
2023/04/21 06:20:08;;;;;;;18.67;3.20;;;;;;;10.69;64.82;99862.85;1670416;85;21091;-57
2023/04/21 06:22:36;;;;;;;10.95;2.70;;;;;;;10.72;64.59;99861.06;1670607;85;21036;-58
2023/04/21 06:25:06;;;;;;;6.58;3.00;;;;;;;10.74;63.94;99863.91;1670486;86;21079;-56
2023/04/21 06:27:35;;;;;;;12.23;2.37;;;;;;;10.78;63.68;99857.47;1670534;86;21554;-58
2023/04/21 06:30:06;;;;;;;17.65;2.55;;;;;;;10.82;63.18;99862.84;1670629;86;21063;-57
2023/04/21 06:32:37;;;;;;;20.88;3.00;;;;;;;10.87;62.81;99858.94;1670409;86;21036;-58
2023/04/21 06:35:08;;;;;;;14.15;3.10;;;;;;;10.91;62.65;99867.05;1670452;86;21044;-56
2023/04/21 06:37:38;;;;;;;15.58;2.72;;;;;;;10.96;62.73;99854.91;1670684;85;21051;-57
2023/04/21 06:40:08;;;;;;;10.10;2.55;;;;;;;11.05;62.36;99867.38;1670563;86;21452;-58
2023/04/21 06:42:38;;;;;;;8.08;2.40;;;;;;;11.15;62.44;99868.30;1670327;85;21095;-58
2023/04/21 06:45:10;;;;;;;8.48;2.37;;;;;;;11.24;62.44;99867.53;1670583;86;21059;-58
2023/04/21 06:47:39;;;;;;;14.93;2.60;;;;;;;11.30;62.29;99859.82;1670572;86;21100;-57
2023/04/21 06:50:10;;;;;;;10.55;2.30;;;;;;;11.36;61.99;99863.91;1670412;86;21040;-56
2023/04/21 06:52:40;;;;;;;10.95;2.20;;;;;;;11.43;61.96;99861.98;1670357;85;21995;-60
2023/04/21 06:55:12;;;;;;;10.03;2.40;;;;;;;11.52;61.84;99863.96;1670424;86;21047;-57
2023/04/21 06:57:40;;;;;;;15.25;2.70;;;;;;;11.60;61.47;99860.97;1670417;86;21069;-59
2023/04/21 07:00:12;;;;;;;12.63;2.50;;;;;;;11.73;61.42;99866.96;1670469;86;21059;-58
2023/04/21 07:02:42;;;;;;;10.05;2.65;;;;;;;11.86;60.80;99864.71;1670517;86;21060;-56
2023/04/21 07:05:11;;;;;;;12.03;2.60;;;;;;;11.99;60.86;99861.89;1670664;85;21024;-56
2023/04/21 07:07:40;;;;;;;8.75;2.10;;;;;;;12.17;60.38;99865.27;1670553;85;21492;-57
2023/04/21 07:10:10;;;;;;;10.43;2.60;;;;;;;12.38;60.14;99867.16;1670339;86;21037;-56
2023/04/21 07:12:39;;;;;;;12.65;2.50;;;;;;;12.67;59.81;99860.69;1670560;85;21428;-57
2023/04/21 07:15:10;;;;;;;14.00;3.72;;;;;;;13.07;58.56;99860.34;1670599;85;21044;-57
2023/04/21 07:17:39;;;;;;;14.93;2.90;;;;;;;13.40;57.23;99859.48;1670322;85;21435;-57
2023/04/21 07:20:09;;;;;;;14.85;3.00;;;;;;;13.70;55.60;99855.97;1670714;85;21047;-57
2023/04/21 07:22:38;;;;;;;18.48;3.35;;;;;;;13.89;54.84;99854.87;1670603;86;21111;-56
2023/04/21 07:25:09;;;;;;;15.43;3.60;;;;;;;13.91;53.61;99859.61;1670600;85;21080;-57
2023/04/21 07:27:38;;;;;;;12.00;2.55;;;;;;;13.83;53.43;99860.77;1670435;86;21475;-56
2023/04/21 07:30:08;;;;;;;13.13;2.83;;;;;;;13.72;53.09;99864.84;1670675;86;21016;-56
2023/04/21 07:32:38;;;;;;;14.90;2.60;;;;;;;13.65;53.54;99870.40;1670632;86;21071;-56
2023/04/21 07:35:09;;;;;;;13.15;3.33;;;;;;;13.60;53.24;99866.13;1671927;86;21004;-57
2023/04/21 07:37:39;;;;;;;10.40;2.72;;;;;;;13.50;53.28;99866.66;1673393;86;21028;-58
2023/04/21 07:40:10;;;;;;;14.00;2.47;;;;;;;13.36;53.23;99863.76;1674121;85;21039;-58
2023/04/21 07:42:39;;;;;;;15.53;3.20;;;;;;;13.22;53.54;99867.73;1674183;86;21067;-56
2023/04/21 07:45:09;;;;;;;10.90;2.65;;;;;;;13.08;53.85;99867.53;1671027;86;21068;-57
2023/04/21 07:47:38;;;;;;;12.73;2.72;;;;;;;12.95;54.04;99863.81;1670865;86;21127;-59
2023/04/21 07:50:09;;;;;;;15.60;2.58;;;;;;;12.88;54.53;99865.78;1671929;83;21433;-60
2023/04/21 07:52:39;;;;;;;23.40;3.62;;;;;;;12.82;54.52;99874.09;1697896;84;21074;-57
2023/04/21 07:55:08;;;;;;;15.68;3.35;;;;;;;12.81;55.02;99866.91;1688292;84;21028;-58
2023/04/21 07:57:38;;;;;;;15.38;2.65;;;;;;;12.85;54.87;99864.86;1692991;84;21501;-58
2023/04/21 08:00:09;;;;;;;28.42;3.77;;;;;;;13.01;54.85;99857.44;1693809;84;21451;-57
2023/04/21 08:02:42;;;;;;;11.93;2.22;;;;;;;13.34;53.90;99860.39;1696258;84;21529;-58
2023/04/21 08:05:11;;;;;;;10.05;2.27;;;;;;;13.63;52.09;99848.61;1693566;85;21060;-56
2023/04/21 08:07:41;;;;;;;9.13;1.92;;;;;;;13.88;50.74;99854.56;1693597;85;21466;-57
2023/04/21 08:10:10;;;;;;;12.13;3.02;;;;;;;14.00;49.95;99860.97;1690738;83;21026;-59
2023/04/21 08:12:40;;;;;;;12.35;2.30;;;;;;;14.09;49.06;99865.08;1688243;85;21093;-57
2023/04/21 08:15:11;;;;;;;18.25;4.45;;;;;;;14.15;48.31;99861.38;1688164;83;21035;-59
2023/04/21 08:17:40;;;;;;;16.17;4.40;;;;;;;14.19;48.80;99862.59;1688090;84;21156;-57
2023/04/21 08:20:11;;;;;;;14.68;2.22;;;;;;;14.41;48.52;99861.55;1654896;85;21080;-56
2023/04/21 08:22:40;;;;;;;10.63;2.47;;;;;;;14.69;47.19;99867.80;1654846;85;21222;-58
2023/04/21 08:25:09;;;;;;;18.70;2.60;;;;;;;14.97;46.53;99873.20;1675581;84;21581;-59
2023/04/21 08:27:39;;;;;;;16.50;2.67;;;;;;;15.20;46.63;99875.95;1709821;84;21051;-57
2023/04/21 08:30:09;;;;;;;13.05;1.92;;;;;;;15.61;45.19;99868.09;1710165;84;21087;-58
2023/04/21 08:32:39;;;;;;;11.03;1.77;;;;;;;15.85;43.74;99889.05;1710233;84;21079;-58
2023/04/21 08:35:09;;;;;;;8.88;1.77;;;;;;;15.87;43.34;99885.20;1710087;84;21106;-58
2023/04/21 08:37:38;;;;;;;9.28;1.70;;;;;;;15.81;42.94;99878.73;1690136;84;21048;-57
2023/04/21 08:40:08;;;;;;;12.70;2.05;;;;;;;15.85;43.75;99871.63;1710220;84;21087;-57
2023/04/21 08:42:38;;;;;;;10.35;1.90;;;;;;;15.86;43.57;99869.16;1709923;84;21055;-58
2023/04/21 08:45:11;;;;;;;8.53;2.15;;;;;;;15.77;43.00;99865.11;1709852;84;21107;-57
2023/04/21 08:47:40;;;;;;;6.97;1.70;;;;;;;15.58;43.75;99880.14;1709731;84;21047;-58
2023/04/21 08:50:12;;;;;;;11.95;2.12;;;;;;;15.44;44.31;99876.23;1709940;83;21075;-60
2023/04/21 08:52:42;;;;;;;9.68;2.10;;;;;;;15.35;44.08;99879.06;1695897;84;21059;-57
2023/04/21 08:55:12;;;;;;;8.88;2.60;;;;;;;15.29;44.20;99877.27;1698572;84;21429;-59
2023/04/21 08:57:41;;;;;;;16.55;2.80;;;;;;;15.26;44.55;99880.51;1712558;83;21116;-60
2023/04/21 09:00:12;;;;;;;20.25;2.20;;;;;;;15.26;45.10;99876.91;1703418;84;21080;-59
2023/04/21 09:02:55;;;;;;;13.05;3.90;;;;;;;15.24;45.46;99881.30;1713389;82;21043;-58
2023/04/21 09:05:29;;;;;;;13.13;2.47;;;;;;;15.18;44.97;99884.47;1745278;82;21491;-59
2023/04/21 09:08:13;;;;;;;11.95;3.08;;;;;;;15.01;45.73;99884.05;1720324;82;21039;-59
2023/04/21 09:10:49;;;;;;;5.42;1.80;;;;;;;14.89;46.22;99891.75;1721797;83;21097;-58
2023/04/21 09:13:20;;;;;;;8.88;2.17;;;;;;;14.76;46.56;99887.00;1693463;85;21108;-58
2023/04/21 09:15:54;;;;;;;10.48;1.98;;;;;;;14.70;47.03;99883.27;1693185;85;21086;-60
2023/04/21 09:18:23;;;;;;;10.25;2.35;;;;;;;14.62;46.91;99882.23;1688712;85;21034;-59
2023/04/21 09:21:15;;;;;;;11.10;2.08;;;;;;;14.48;48.01;99884.37;1732257;82;20999;-58
2023/04/21 09:23:48;;;;;;;6.95;1.67;;;;;;;14.42;47.67;99885.82;1742029;82;21064;-59
2023/04/21 09:26:21;;;;;;;8.40;2.00;;;;;;;14.35;47.99;99890.05;1743617;82;21059;-58
2023/04/21 09:28:51;;;;;;;15.03;3.37;;;;;;;14.32;47.96;99896.57;1743925;82;21086;-60
2023/04/21 09:31:27;;;;;;;9.83;3.00;;;;;;;14.24;47.75;99885.31;1743806;82;21472;-58
2023/04/21 09:33:57;;;;;;;12.53;2.58;;;;;;;14.12;48.34;99894.06;1743663;82;21549;-60
2023/04/21 09:36:29;;;;;;;13.40;2.25;;;;;;;14.07;48.71;99900.81;1742086;82;21027;-59
2023/04/21 09:39:00;;;;;;;7.75;2.10;;;;;;;14.07;49.33;99910.45;1710138;83;21046;-60
2023/04/21 09:41:32;;;;;;;9.05;1.98;;;;;;;13.96;49.13;99906.58;1703096;84;21049;-60
2023/04/21 09:44:03;;;;;;;7.75;2.00;;;;;;;13.87;49.50;99918.98;1703216;84;21066;-58
2023/04/21 09:46:34;;;;;;;12.45;2.60;;;;;;;13.80;49.84;99918.22;1703253;84;21897;-57
2023/04/21 09:49:03;;;;;;;8.93;2.02;;;;;;;13.69;49.75;99907.44;1703228;84;21085;-57
2023/04/21 09:51:32;;;;;;;8.63;1.92;;;;;;;13.54;50.37;99925.69;1703181;84;21073;-58
2023/04/21 09:54:14;;;;;;;10.88;2.40;;;;;;;13.44;50.72;99935.01;1703374;84;21053;-58
2023/04/21 09:56:47;;;;;;;12.55;2.87;;;;;;;13.33;51.03;99917.34;1701857;84;21082;-59
2023/04/21 09:59:20;;;;;;;11.68;2.05;;;;;;;13.19;51.55;99917.70;1704128;84;21503;-58
2023/04/21 10:01:50;;;;;;;6.62;2.12;;;;;;;13.09;52.33;99917.34;1707040;84;21716;-59
2023/04/21 10:04:19;;;;;;;10.88;2.35;;;;;;;13.12;53.06;99912.77;1710259;84;21029;-59
2023/04/21 10:06:49;;;;;;;9.45;2.27;;;;;;;13.23;52.80;99915.64;1709903;83;21061;-60
2023/04/21 10:09:18;;;;;;;11.10;2.55;;;;;;;13.30;52.83;99915.58;1710037;83;21445;-58
2023/04/21 10:11:46;;;;;;;13.78;2.30;;;;;;;13.33;52.12;99919.25;1716022;83;21094;-58
2023/04/21 10:14:16;;;;;;;10.38;2.58;;;;;;;13.33;52.05;99933.01;1720794;83;21103;-58
2023/04/21 10:16:57;;;;;;;11.38;2.30;;;;;;;13.27;52.02;99933.91;1720578;83;21091;-57
2023/04/21 10:19:27;;;;;;;10.88;2.40;;;;;;;13.22;52.68;99940.09;1720332;83;21513;-59
2023/04/21 10:21:59;;;;;;;11.25;2.15;;;;;;;13.25;52.73;99947.05;1720449;83;21095;-57
2023/04/21 10:24:30;;;;;;;15.18;3.50;;;;;;;13.24;52.99;99949.50;1720430;83;21035;-58
2023/04/21 10:26:58;;;;;;;12.05;2.30;;;;;;;13.23;52.98;99946.44;1710077;83;21045;-59
2023/04/21 10:29:33;;;;;;;8.10;2.30;;;;;;;13.17;53.02;99950.09;1710196;83;21093;-56
2023/04/21 10:32:04;;;;;;;13.38;2.65;;;;;;;13.11;53.01;99945.47;1707135;83;21088;-56
2023/04/21 10:34:36;;;;;;;11.90;2.30;;;;;;;13.06;53.20;99945.30;1710053;83;21076;-56
2023/04/21 10:37:10;;;;;;;9.70;1.90;;;;;;;13.03;53.08;99952.09;1710279;83;21021;-54
2023/04/21 10:39:47;;;;;;;5.33;1.67;;;;;;;12.98;53.07;99962.36;1714869;83;21463;-56
2023/04/21 10:42:21;;;;;;;8.55;1.87;;;;;;;12.91;53.37;99951.95;1714719;84;21088;-56
2023/04/21 10:45:03;;;;;;;10.13;2.10;;;;;;;12.84;53.52;99944.28;1715068;83;21129;-57
2023/04/21 10:47:42;;;;;;;10.43;1.70;;;;;;;12.84;53.74;99926.95;1715037;83;21417;-58
2023/04/21 10:50:27;;;;;;;9.58;2.27;;;;;;;12.91;54.04;99938.20;1715226;83;21054;-58
2023/04/21 10:53:11;;;;;;;16.52;2.37;;;;;;;13.00;53.30;99934.13;1715958;83;21500;-57
2023/04/21 10:55:41;;;;;;;13.62;2.20;;;;;;;13.04;52.96;99939.19;1716204;84;21057;-58
2023/04/21 10:58:10;;;;;;;7.95;2.10;;;;;;;13.00;53.04;99934.13;1717219;84;21060;-58
2023/04/21 11:00:38;;;;;;;9.13;1.98;;;;;;;13.03;53.21;99930.09;1712059;83;21104;-58
2023/04/21 11:03:07;;;;;;;10.28;2.25;;;;;;;13.10;52.50;99934.16;1711524;83;21104;-58
2023/04/21 11:05:40;;;;;;;12.95;2.40;;;;;;;13.16;52.21;99934.63;1703368;84;21090;-58
2023/04/21 11:08:14;;;;;;;11.08;2.58;;;;;;;13.16;51.56;99945.09;1703334;84;21075;-57
2023/04/21 11:10:53;;;;;;;14.25;2.72;;;;;;;13.14;52.16;99941.73;1704617;84;21091;-57
2023/04/21 11:13:25;;;;;;;11.97;2.85;;;;;;;13.17;52.00;99928.93;1714187;83;21016;-59
2023/04/21 11:16:01;;;;;;;13.40;2.75;;;;;;;13.21;51.50;99948.58;1714067;84;21032;-59
2023/04/21 11:18:38;;;;;;;13.32;2.85;;;;;;;13.18;51.56;99931.99;1714220;84;21040;-57
2023/04/21 11:21:16;;;;;;;12.63;2.58;;;;;;;13.20;51.56;99931.77;1714262;84;21527;-59
2023/04/21 11:23:53;;;;;;;15.78;2.83;;;;;;;13.21;51.44;99929.31;1714064;84;21143;-59
2023/04/21 11:26:37;;;;;;;10.75;2.35;;;;;;;13.22;51.33;99922.22;1714268;84;21063;-57
2023/04/21 11:29:07;;;;;;;12.33;2.40;;;;;;;13.21;51.43;99917.78;1713800;84;21156;-59
2023/04/21 11:31:37;;;;;;;11.90;2.30;;;;;;;13.28;51.46;99917.72;1713994;83;21067;-57
2023/04/21 11:34:06;;;;;;;10.80;2.15;;;;;;;13.33;51.45;99902.73;1692538;84;21111;-57
2023/04/21 11:36:42;;;;;;;10.78;2.62;;;;;;;13.41;51.26;99906.56;1714057;84;21020;-59
2023/04/21 11:39:12;;;;;;;10.93;2.15;;;;;;;13.46;50.55;99899.84;1683998;84;21103;-57
2023/04/21 11:41:43;;;;;;;6.03;1.80;;;;;;;13.48;50.70;99892.73;1681822;85;21046;-58
2023/04/21 11:44:12;;;;;;;10.08;2.05;;;;;;;13.53;50.42;99895.64;1682176;85;21075;-58